KALW

Walla Walla Regional Airport

Walla Walla, Washington, USA
KALW 191720Z 1918/2018 26009KT P6SM SCT250 FM200300 17008KT P6SM SKC FM201700 20010KT P6SM SCT250
Issued Valid From Valid To
Sep-19 @ 17:20 UTC
(5 hours ago)
Sep-19 @ 18:00 UTC
(5 hours ago)
Sep-20 @ 18:00 UTC
(in 19 hours)
Sep-19 @ 18:00 to Sep-20 @ 03:00
KALW 191720Z 1918/2018 26009KT P6SM SCT250
Wind Visibility Clouds
260° at 9 knots Greater than 6 miles
  • Scattered at 25,000' AGL
From Sep-20 @ 03:00 to Sep-20 @ 17:00
FM200300 17008KT P6SM SKC
Wind Visibility Clouds
170° at 8 knots Greater than 6 miles
  • Clear skies
From Sep-20 @ 17:00 to Sep-20 @ 18:00
FM201700 20010KT P6SM SCT250
Wind Visibility Clouds
200° at 10 knots Greater than 6 miles
  • Scattered at 25,000' AGL
KALW 191720Z 1918/2018 26009KT P6SM SCT250 FM200300 17008KT P6SM SKC FM201700 20010KT P6SM SCT250
Issued Sep-19 @ 17:20 UTC
(5 hours ago)
Valid From Sep-19 @ 18:00 UTC
(5 hours ago)
Valid To Sep-20 @ 18:00 UTC
(in 19 hours)
Sep-19 @ 18:00 - Sep-20 @ 03:00
Wind Visibility
260° at 9 knots Greater than 6 miles
Clouds
  • Scattered at 25,000' AGL
From Sep-20 @ 03:00 - Sep-20 @ 17:00
Wind Visibility
170° at 8 knots Greater than 6 miles
Clouds
  • Clear skies
From Sep-20 @ 17:00 - Sep-20 @ 18:00
Wind Visibility
200° at 10 knots Greater than 6 miles
Clouds
  • Scattered at 25,000' AGL